Time;durP1;ratioP1;P1;durP2;ratioP2;P2;SDS_P1;SDS_P2;PMS_P1;PMS_P2;Temp;Humidity;BMP_temperature;BMP_pressure;BME280_temperature;BME280_humidity;BME280_pressure;Samples;Min_cycle;Max_cycle;Signal;HPM_P1;HPM_P2
2024/02/27 00:00:20;;;;;;;17.60;12.03;;;7.90;99.90;;;;;;824467;172;26435;-72
2024/02/27 00:02:46;;;;;;;16.43;12.63;;;7.90;99.90;;;;;;797047;179;26500;-73
2024/02/27 00:05:13;;;;;;;15.83;12.27;;;7.80;99.90;;;;;;810316;176;26985;-73
2024/02/27 00:07:39;;;;;;;19.90;13.73;;;7.90;99.90;;;;;;812444;176;26478;-77
2024/02/27 00:10:06;;;;;;;15.90;12.33;;;7.90;99.90;;;;;;816988;173;27008;-77
2024/02/27 00:12:34;;;;;;;15.07;12.20;;;7.80;99.90;;;;;;816524;173;27041;-76
2024/02/27 00:14:59;;;;;;;18.13;12.33;;;7.80;99.90;;;;;;794886;179;26474;-76
2024/02/27 00:17:27;;;;;;;17.53;13.37;;;7.80;99.90;;;;;;809934;176;26996;-76
2024/02/27 00:19:53;;;;;;;17.83;13.53;;;7.80;99.90;;;;;;807639;173;26553;-76
2024/02/27 00:22:20;;;;;;;21.33;14.03;;;7.80;99.90;;;;;;798852;176;26837;-76
2024/02/27 00:24:46;;;;;;;17.27;13.90;;;7.70;99.90;;;;;;794876;176;26470;-76
2024/02/27 00:27:13;;;;;;;19.47;14.67;;;7.60;99.90;;;;;;801590;176;26476;-77
2024/02/27 00:29:40;;;;;;;17.70;12.93;;;7.60;99.90;;;;;;813685;173;26569;-76
2024/02/27 00:32:07;;;;;;;16.43;13.33;;;7.60;99.90;;;;;;795365;179;26647;-76
2024/02/27 00:34:35;;;;;;;18.63;14.07;;;7.60;99.90;;;;;;810964;176;26438;-76
2024/02/27 00:37:00;;;;;;;17.67;13.90;;;7.60;99.90;;;;;;810080;176;27009;-76
2024/02/27 00:39:27;;;;;;;20.67;15.77;;;7.60;99.90;;;;;;811230;176;26455;-76
2024/02/27 00:41:57;;;;;;;20.43;15.70;;;7.50;99.90;;;;;;822473;173;27017;-77
2024/02/27 00:44:20;;;;;;;21.70;16.80;;;7.50;99.90;;;;;;811373;176;26439;-76
2024/02/27 00:46:46;;;;;;;23.73;17.23;;;7.50;99.90;;;;;;810433;176;26432;-76
2024/02/27 00:49:13;;;;;;;20.70;16.30;;;7.50;99.90;;;;;;816367;173;26976;-77
2024/02/27 00:51:39;;;;;;;21.67;17.17;;;7.50;99.90;;;;;;816629;173;26405;-76
2024/02/27 00:54:06;;;;;;;23.97;17.43;;;7.50;99.90;;;;;;809441;173;26560;-77
2024/02/27 00:56:33;;;;;;;23.67;16.80;;;7.50;99.90;;;;;;803585;176;26438;-76
2024/02/27 00:58:59;;;;;;;21.00;16.43;;;7.40;99.90;;;;;;795457;177;26521;-77
2024/02/27 01:01:26;;;;;;;18.77;15.03;;;7.50;99.90;;;;;;798592;177;26427;-77
2024/02/27 01:03:53;;;;;;;22.13;16.43;;;7.50;99.90;;;;;;810115;176;27066;-77
2024/02/27 01:06:19;;;;;;;21.63;16.10;;;7.50;99.90;;;;;;810259;176;26433;-76
2024/02/27 01:08:46;;;;;;;20.53;16.67;;;7.50;99.90;;;;;;811741;176;26999;-77
2024/02/27 01:11:12;;;;;;;25.47;17.57;;;7.50;99.90;;;;;;813485;175;26423;-77
2024/02/27 01:13:39;;;;;;;22.43;16.93;;;7.50;99.90;;;;;;812726;175;26606;-77
2024/02/27 01:16:06;;;;;;;23.00;16.93;;;7.50;99.90;;;;;;811603;176;26472;-76
2024/02/27 01:18:33;;;;;;;20.80;16.00;;;7.40;99.90;;;;;;815596;175;27075;-77
2024/02/27 01:21:00;;;;;;;22.20;17.30;;;7.50;99.90;;;;;;814244;176;26434;-77
2024/02/27 01:23:26;;;;;;;27.03;19.67;;;7.50;99.90;;;;;;810090;177;26509;-77
2024/02/27 01:25:52;;;;;;;25.83;16.80;;;7.50;99.90;;;;;;810512;176;26447;-75
2024/02/27 01:28:19;;;;;;;25.43;18.77;;;7.50;99.90;;;;;;814669;173;26458;-76
2024/02/27 01:30:46;;;;;;;22.00;17.53;;;7.50;99.90;;;;;;794995;180;26459;-77
2024/02/27 01:33:25;;;;;;;24.37;18.63;;;7.50;99.90;;;;;;806470;177;27015;-75
2024/02/27 01:35:51;;;;;;;25.90;19.10;;;7.50;99.90;;;;;;789955;181;26514;-78
2024/02/27 01:38:18;;;;;;;26.17;18.37;;;7.60;99.90;;;;;;782066;181;26526;-81
2024/02/27 01:40:44;;;;;;;26.53;21.10;;;7.60;99.90;;;;;;775869;183;27027;-80
2024/02/27 01:43:20;;;;;;;28.40;22.07;;;7.60;99.90;;;;;;795892;179;26523;-81
2024/02/27 01:45:46;;;;;;;29.70;22.67;;;7.60;99.90;;;;;;772231;184;26519;-78
2024/02/27 01:48:13;;;;;;;31.43;23.00;;;7.60;99.90;;;;;;774063;181;26479;-80
2024/02/27 01:50:45;;;;;;;29.53;20.87;;;7.60;99.90;;;;;;775434;184;26527;-77
2024/02/27 01:53:06;;;;;;;29.57;21.00;;;7.50;99.90;;;;;;778252;184;27012;-80
2024/02/27 01:55:33;;;;;;;30.60;23.00;;;7.50;99.90;;;;;;776288;184;26523;-79
2024/02/27 01:57:59;;;;;;;26.83;20.20;;;7.60;99.90;;;;;;776802;185;26479;-77
2024/02/27 02:00:26;;;;;;;30.77;23.30;;;7.50;99.90;;;;;;775540;184;26519;-79
2024/02/27 02:02:52;;;;;;;28.67;20.70;;;7.50;99.90;;;;;;772236;185;26473;-80
2024/02/27 02:05:19;;;;;;;29.83;23.00;;;7.50;99.90;;;;;;762825;186;26520;-79
2024/02/27 02:07:45;;;;;;;27.10;20.93;;;7.50;99.90;;;;;;766962;186;26524;-80
2024/02/27 02:10:12;;;;;;;26.80;20.57;;;7.50;99.90;;;;;;768331;186;26524;-78
2024/02/27 02:12:39;;;;;;;29.57;21.87;;;7.50;99.90;;;;;;779886;183;27307;-81
2024/02/27 02:15:06;;;;;;;28.07;20.97;;;7.60;99.90;;;;;;770178;184;26512;-79
2024/02/27 02:17:33;;;;;;;30.77;22.30;;;7.60;99.90;;;;;;764651;186;26507;-77
2024/02/27 02:19:59;;;;;;;26.60;19.63;;;7.50;99.90;;;;;;752696;190;26521;-79
2024/02/27 02:22:26;;;;;;;26.43;19.47;;;7.50;99.90;;;;;;751972;189;26512;-78
2024/02/27 02:24:53;;;;;;;28.13;21.47;;;7.50;99.90;;;;;;776849;184;26473;-80
2024/02/27 02:27:19;;;;;;;26.37;18.90;;;7.50;99.90;;;;;;776961;182;26469;-79
2024/02/27 02:29:46;;;;;;;26.07;19.77;;;7.50;99.90;;;;;;764629;186;26595;-80
2024/02/27 02:32:12;;;;;;;27.50;20.57;;;7.60;99.90;;;;;;765347;186;26625;-81
2024/02/27 02:34:39;;;;;;;26.73;20.30;;;7.50;99.90;;;;;;768906;186;26512;-80
2024/02/27 02:37:06;;;;;;;24.17;18.37;;;7.60;99.90;;;;;;783546;183;26549;-80
2024/02/27 02:39:32;;;;;;;26.43;18.67;;;7.60;99.90;;;;;;780523;183;26461;-78
2024/02/27 02:41:59;;;;;;;25.87;18.33;;;7.60;99.90;;;;;;780287;183;26522;-81
2024/02/27 02:44:25;;;;;;;26.20;19.50;;;7.60;99.90;;;;;;766658;184;26481;-79
2024/02/27 02:46:52;;;;;;;23.33;17.67;;;7.60;99.90;;;;;;751087;189;26578;-80
2024/02/27 02:49:18;;;;;;;24.80;18.37;;;7.60;99.90;;;;;;765800;187;26667;-77
2024/02/27 02:51:45;;;;;;;25.23;18.13;;;7.50;99.90;;;;;;780208;182;27222;-81
2024/02/27 02:54:12;;;;;;;27.17;19.83;;;7.50;99.90;;;;;;781568;183;26561;-80
2024/02/27 02:56:38;;;;;;;27.83;19.10;;;7.50;99.90;;;;;;770987;184;27044;-77
2024/02/27 02:59:05;;;;;;;31.23;20.63;;;7.50;99.90;;;;;;761163;187;26531;-79
2024/02/27 03:01:31;;;;;;;30.20;21.47;;;7.50;99.90;;;;;;769662;184;27079;-79
2024/02/27 03:03:58;;;;;;;29.47;21.37;;;7.50;99.90;;;;;;764219;186;26538;-78
2024/02/27 03:06:25;;;;;;;29.37;21.83;;;7.40;99.90;;;;;;779661;183;27065;-77
2024/02/27 03:08:51;;;;;;;33.23;22.70;;;7.40;99.90;;;;;;773973;184;26499;-81
2024/02/27 03:11:18;;;;;;;33.10;22.60;;;7.50;99.90;;;;;;760631;187;28115;-79
2024/02/27 03:13:45;;;;;;;31.67;23.13;;;7.40;99.90;;;;;;778517;183;26532;-80
2024/02/27 03:16:11;;;;;;;32.03;23.10;;;7.40;99.90;;;;;;778876;183;26977;-76
2024/02/27 03:18:38;;;;;;;37.03;24.20;;;7.40;99.90;;;;;;769173;184;26541;-78
2024/02/27 03:21:04;;;;;;;36.17;25.07;;;7.40;99.90;;;;;;779211;183;26519;-79
2024/02/27 03:23:31;;;;;;;39.17;26.37;;;7.40;99.90;;;;;;761601;184;26480;-81
2024/02/27 03:25:58;;;;;;;39.53;26.33;;;7.40;99.90;;;;;;781063;183;27064;-81
2024/02/27 03:28:24;;;;;;;41.53;26.87;;;7.30;99.90;;;;;;771545;184;26510;-77
2024/02/27 03:30:51;;;;;;;45.20;29.10;;;7.30;99.90;;;;;;778417;183;27088;-79
2024/02/27 03:33:18;;;;;;;43.43;28.87;;;7.30;99.90;;;;;;768822;184;26519;-79
2024/02/27 03:35:44;;;;;;;45.67;29.90;;;7.20;99.90;;;;;;781192;182;26545;-77
2024/02/27 03:38:11;;;;;;;50.67;33.43;;;7.10;99.90;;;;;;782565;183;26549;-79
2024/02/27 03:40:38;;;;;;;47.27;31.77;;;7.10;99.90;;;;;;781168;183;27031;-76
2024/02/27 03:43:04;;;;;;;55.27;33.17;;;7.10;99.90;;;;;;781490;183;26493;-80
2024/02/27 03:45:31;;;;;;;50.00;32.87;;;7.10;99.90;;;;;;772745;184;26495;-80
2024/02/27 03:47:57;;;;;;;45.37;30.90;;;7.10;99.90;;;;;;772569;184;26494;-79
2024/02/27 03:50:24;;;;;;;41.03;28.87;;;7.10;99.90;;;;;;764303;186;26697;-80
2024/02/27 03:52:51;;;;;;;50.53;29.17;;;7.10;99.90;;;;;;781533;183;27051;-80
2024/02/27 03:55:17;;;;;;;45.93;28.83;;;7.00;99.90;;;;;;782667;183;26546;-80
2024/02/27 03:57:44;;;;;;;42.60;28.13;;;7.00;99.90;;;;;;781103;183;26543;-79
2024/02/27 04:00:13;;;;;;;44.87;29.37;;;6.90;99.90;;;;;;781575;183;26543;-79
2024/02/27 04:02:38;;;;;;;46.17;30.50;;;6.90;99.90;;;;;;780835;182;26494;-79
2024/02/27 04:05:05;;;;;;;46.23;29.87;;;6.80;99.90;;;;;;780078;183;26537;-80
2024/02/27 04:07:31;;;;;;;45.37;29.90;;;6.80;99.90;;;;;;780765;183;26663;-77
2024/02/27 04:09:58;;;;;;;45.43;29.73;;;6.90;99.90;;;;;;779424;181;26545;-81
2024/02/27 04:12:25;;;;;;;44.20;30.00;;;6.90;99.90;;;;;;780094;183;26497;-79
2024/02/27 04:14:51;;;;;;;42.33;28.83;;;6.90;99.90;;;;;;779286;183;26505;-77
2024/02/27 04:17:19;;;;;;;45.77;30.17;;;6.90;99.90;;;;;;778856;183;26574;-79
2024/02/27 04:19:44;;;;;;;48.37;30.90;;;6.90;99.90;;;;;;782372;183;27023;-78
2024/02/27 04:22:11;;;;;;;45.77;30.33;;;6.90;99.90;;;;;;781242;183;26498;-79
2024/02/27 04:24:37;;;;;;;45.30;29.33;;;6.80;99.90;;;;;;765831;184;27200;-79
2024/02/27 04:27:04;;;;;;;44.07;28.87;;;6.80;99.90;;;;;;751382;190;26501;-80
2024/02/27 04:29:31;;;;;;;43.80;29.43;;;6.80;99.90;;;;;;777818;185;26470;-80
2024/02/27 04:31:57;;;;;;;46.13;30.07;;;6.80;99.90;;;;;;772702;185;26755;-79
2024/02/27 04:34:24;;;;;;;46.83;30.03;;;6.80;99.90;;;;;;772695;184;26522;-79
2024/02/27 04:36:51;;;;;;;44.87;28.80;;;6.80;99.90;;;;;;749137;189;26536;-79
2024/02/27 04:39:17;;;;;;;51.43;30.83;;;6.80;99.90;;;;;;767398;187;26582;-77
2024/02/27 04:41:44;;;;;;;48.47;30.30;;;6.80;99.90;;;;;;780991;183;26493;-78
2024/02/27 04:44:10;;;;;;;49.20;31.17;;;6.80;99.90;;;;;;780102;183;26566;-79
2024/02/27 04:46:37;;;;;;;48.77;30.63;;;6.80;99.90;;;;;;781073;181;26556;-79
2024/02/27 04:49:03;;;;;;;52.03;32.53;;;6.80;99.90;;;;;;771347;183;26517;-79
2024/02/27 04:51:30;;;;;;;47.90;30.70;;;6.80;99.90;;;;;;750834;189;27113;-78
2024/02/27 04:53:57;;;;;;;52.77;32.77;;;6.80;99.90;;;;;;767262;185;26495;-82
2024/02/27 04:56:23;;;;;;;52.37;32.50;;;6.80;99.90;;;;;;783469;181;26482;-80
2024/02/27 04:58:50;;;;;;;49.27;31.47;;;6.80;99.90;;;;;;785734;181;26518;-83
2024/02/27 05:01:16;;;;;;;50.73;32.77;;;6.80;99.90;;;;;;783307;181;26479;-82
2024/02/27 05:03:43;;;;;;;52.63;32.60;;;6.80;99.90;;;;;;772361;182;26486;-82
2024/02/27 05:06:10;;;;;;;57.20;33.70;;;6.80;99.90;;;;;;770069;182;26487;-80
2024/02/27 05:08:36;;;;;;;50.63;31.30;;;6.80;99.90;;;;;;782381;183;26493;-79
2024/02/27 05:11:03;;;;;;;53.00;33.70;;;6.70;99.90;;;;;;771182;185;26521;-77
2024/02/27 05:13:29;;;;;;;48.90;31.47;;;6.70;99.90;;;;;;775213;184;26470;-78
2024/02/27 05:15:56;;;;;;;49.27;31.67;;;6.70;99.90;;;;;;772249;184;26487;-83
2024/02/27 05:18:23;;;;;;;52.80;32.67;;;6.70;99.90;;;;;;769059;184;26474;-79
2024/02/27 05:20:49;;;;;;;53.93;33.77;;;6.70;99.90;;;;;;776605;185;26498;-77
2024/02/27 05:23:16;;;;;;;53.87;33.33;;;6.70;99.90;;;;;;772106;184;26495;-79
2024/02/27 05:25:42;;;;;;;52.47;31.63;;;6.70;99.90;;;;;;766682;186;26653;-77
2024/02/27 05:28:09;;;;;;;49.77;31.37;;;6.60;99.90;;;;;;780062;183;26593;-79
2024/02/27 05:30:35;;;;;;;50.90;33.00;;;6.70;99.90;;;;;;773126;184;26487;-79
2024/02/27 05:33:03;;;;;;;54.40;33.97;;;6.60;99.90;;;;;;763898;186;26494;-81
2024/02/27 05:35:29;;;;;;;61.07;34.13;;;6.60;99.90;;;;;;766936;186;26507;-79
2024/02/27 05:37:56;;;;;;;51.23;32.63;;;6.50;99.90;;;;;;779290;183;26493;-76
2024/02/27 05:40:22;;;;;;;48.93;31.00;;;6.50;99.90;;;;;;776700;184;27022;-76
2024/02/27 05:42:49;;;;;;;50.37;31.37;;;6.50;99.90;;;;;;765968;181;26479;-76
2024/02/27 05:45:15;;;;;;;56.60;34.27;;;6.50;99.90;;;;;;762306;187;26512;-80
2024/02/27 05:47:43;;;;;;;61.90;36.23;;;6.50;99.90;;;;;;763999;186;26689;-80
2024/02/27 05:50:10;;;;;;;58.13;35.20;;;6.50;99.90;;;;;;764813;186;26502;-77
2024/02/27 05:52:36;;;;;;;51.07;33.10;;;6.40;99.90;;;;;;782767;183;27012;-81
2024/02/27 05:55:03;;;;;;;52.57;33.03;;;6.50;99.90;;;;;;782670;182;26513;-80
2024/02/27 05:57:29;;;;;;;55.87;34.07;;;6.40;99.90;;;;;;782673;182;26473;-79
2024/02/27 05:59:56;;;;;;;55.43;33.63;;;6.30;99.90;;;;;;774360;184;26506;-79
2024/02/27 06:02:23;;;;;;;58.77;34.20;;;6.30;99.90;;;;;;770613;186;26518;-78
2024/02/27 06:04:49;;;;;;;59.87;34.37;;;6.40;99.90;;;;;;770726;186;27109;-79
2024/02/27 06:07:16;;;;;;;53.17;33.20;;;6.30;99.90;;;;;;769963;186;26503;-78
2024/02/27 06:09:42;;;;;;;61.70;35.90;;;6.30;99.90;;;;;;770502;186;26508;-79
2024/02/27 06:12:09;;;;;;;57.10;33.73;;;6.30;99.90;;;;;;766697;186;26496;-78
2024/02/27 06:14:36;;;;;;;57.43;34.53;;;6.30;99.90;;;;;;766966;186;26520;-80
2024/02/27 06:17:02;;;;;;;65.70;35.33;;;6.20;99.90;;;;;;769264;186;27063;-80
2024/02/27 06:19:30;;;;;;;60.70;35.03;;;6.20;99.90;;;;;;783021;183;26561;-78
2024/02/27 06:24:28;;;;;;;58.97;35.87;;;6.20;99.90;;;;;;782209;183;26554;-80
2024/02/27 06:26:55;;;;;;;60.63;35.47;;;6.20;99.90;;;;;;781588;182;26880;-80
2024/02/27 06:29:21;;;;;;;63.13;35.90;;;6.30;99.90;;;;;;773842;184;26483;-78
2024/02/27 06:31:48;;;;;;;60.97;35.27;;;6.30;99.90;;;;;;765224;187;26499;-79
2024/02/27 06:34:14;;;;;;;60.63;35.13;;;6.30;99.90;;;;;;762957;186;26517;-77
2024/02/27 06:36:41;;;;;;;58.47;35.77;;;6.20;99.90;;;;;;764779;187;26516;-77
2024/02/27 06:39:07;;;;;;;64.73;37.53;;;6.30;99.90;;;;;;762319;187;26514;-80
2024/02/27 06:41:34;;;;;;;60.43;36.33;;;6.30;99.90;;;;;;768891;186;26507;-79
2024/02/27 06:44:01;;;;;;;57.93;35.63;;;6.30;99.90;;;;;;766801;186;26559;-80
2024/02/27 06:46:27;;;;;;;56.70;34.97;;;6.30;99.90;;;;;;761880;187;26612;-79
2024/02/27 06:48:54;;;;;;;52.47;33.33;;;6.40;99.90;;;;;;764550;187;26510;-81
2024/02/27 06:51:20;;;;;;;57.80;33.53;;;6.40;99.90;;;;;;763255;187;27072;-80
2024/02/27 06:53:47;;;;;;;64.70;34.77;;;6.40;99.90;;;;;;764679;186;26552;-80
2024/02/27 06:56:14;;;;;;;63.43;37.40;;;6.40;99.90;;;;;;765647;186;27059;-78
2024/02/27 06:58:40;;;;;;;56.93;34.73;;;6.50;99.90;;;;;;769220;187;26495;-79
2024/02/27 07:01:07;;;;;;;51.70;32.90;;;6.50;99.90;;;;;;767430;186;26495;-79
2024/02/27 07:03:33;;;;;;;57.37;34.53;;;6.60;99.90;;;;;;766499;186;26532;-79
2024/02/27 07:06:01;;;;;;;57.23;35.70;;;6.60;99.90;;;;;;765303;186;26488;-80
2024/02/27 07:08:26;;;;;;;51.67;32.87;;;6.60;99.90;;;;;;765289;186;26563;-79
2024/02/27 07:10:53;;;;;;;51.23;32.63;;;6.70;99.90;;;;;;766046;186;26520;-81
2024/02/27 07:13:20;;;;;;;59.90;36.00;;;6.70;99.90;;;;;;782170;183;26477;-79
2024/02/27 07:15:46;;;;;;;60.27;34.13;;;6.80;99.90;;;;;;781124;183;26485;-78
2024/02/27 07:18:15;;;;;;;53.93;34.27;;;6.80;99.90;;;;;;781293;183;26503;-79
2024/02/27 07:20:39;;;;;;;65.27;37.57;;;6.80;99.90;;;;;;781282;183;26477;-78
2024/02/27 07:23:06;;;;;;;62.07;36.27;;;6.90;99.90;;;;;;779535;183;27044;-79
2024/02/27 07:25:33;;;;;;;60.63;37.07;;;6.90;99.90;;;;;;780760;183;26639;-78
2024/02/27 07:27:59;;;;;;;62.80;35.20;;;6.80;99.90;;;;;;768074;184;26487;-80
2024/02/27 07:30:26;;;;;;;61.00;35.73;;;6.80;99.90;;;;;;760664;186;26546;-77
2024/02/27 07:32:53;;;;;;;60.90;37.03;;;6.70;99.90;;;;;;764773;186;26505;-78
2024/02/27 07:35:21;;;;;;;67.33;38.37;;;6.70;99.90;;;;;;769599;169;26506;-76
2024/02/27 07:37:49;;;;;;;63.67;37.73;;;6.70;99.90;;;;;;804394;176;26996;-77
2024/02/27 07:40:15;;;;;;;60.17;35.63;;;6.70;99.90;;;;;;804329;176;26994;-77
2024/02/27 07:42:42;;;;;;;60.97;36.47;;;6.80;99.90;;;;;;804922;177;26417;-77
2024/02/27 07:45:09;;;;;;;64.67;38.83;;;6.80;99.90;;;;;;802815;176;26424;-76
2024/02/27 07:47:35;;;;;;;61.43;37.90;;;6.80;99.90;;;;;;796913;175;26550;-76
2024/02/27 07:50:04;;;;;;;63.77;37.77;;;6.80;99.90;;;;;;763664;184;27054;-76
2024/02/27 07:52:30;;;;;;;68.87;38.87;;;6.90;99.90;;;;;;796211;177;26455;-76
2024/02/27 07:54:56;;;;;;;57.83;37.20;;;6.90;99.90;;;;;;796523;179;26468;-77
2024/02/27 07:57:24;;;;;;;62.83;37.40;;;7.00;99.90;;;;;;776555;184;26860;-75
2024/02/27 07:59:49;;;;;;;60.23;37.30;;;7.20;99.90;;;;;;794160;178;27244;-77
2024/02/27 08:02:16;;;;;;;57.93;35.93;;;7.30;99.90;;;;;;775416;184;26876;-77
2024/02/27 08:04:43;;;;;;;57.20;35.60;;;7.30;99.90;;;;;;794624;179;26453;-78
2024/02/27 08:07:09;;;;;;;61.60;36.87;;;7.30;99.90;;;;;;775245;183;27021;-77
2024/02/27 08:09:36;;;;;;;56.83;35.93;;;7.40;99.90;;;;;;794445;179;26537;-77
2024/02/27 08:12:02;;;;;;;60.57;36.23;;;7.40;99.90;;;;;;775447;182;28803;-76
2024/02/27 08:14:30;;;;;;;56.90;35.67;;;7.40;99.90;;;;;;794481;179;26536;-76
2024/02/27 08:16:58;;;;;;;56.83;36.07;;;7.50;99.90;;;;;;775176;184;26559;-76
2024/02/27 08:19:22;;;;;;;61.60;35.60;;;7.50;99.90;;;;;;777196;180;26491;-76
2024/02/27 08:21:49;;;;;;;58.50;35.70;;;7.50;99.90;;;;;;801155;178;26444;-77
2024/02/27 08:24:15;;;;;;;57.50;35.33;;;7.40;99.90;;;;;;779596;183;27069;-77
2024/02/27 08:26:45;;;;;;;56.53;34.57;;;7.50;99.90;;;;;;796461;179;26459;-78
2024/02/27 08:29:09;;;;;;;55.47;35.87;;;7.60;99.90;;;;;;778483;183;26994;-77
2024/02/27 08:31:35;;;;;;;59.63;36.37;;;7.60;99.90;;;;;;797665;179;26449;-77
2024/02/27 08:34:04;;;;;;;60.70;35.97;;;7.70;99.90;;;;;;779721;183;27036;-78
2024/02/27 08:36:33;;;;;;;59.23;35.97;;;7.70;99.90;;;;;;799205;179;26501;-79
2024/02/27 08:39:00;;;;;;;53.87;33.67;;;7.80;99.90;;;;;;780052;183;26450;-75
2024/02/27 08:41:26;;;;;;;58.70;35.93;;;7.80;99.90;;;;;;781310;184;26434;-78
2024/02/27 08:43:53;;;;;;;57.43;35.20;;;7.90;99.90;;;;;;800098;179;26597;-78
2024/02/27 08:46:19;;;;;;;53.07;35.33;;;7.90;99.90;;;;;;798755;176;26469;-78
2024/02/27 08:48:46;;;;;;;55.20;35.07;;;7.90;99.90;;;;;;779687;184;26456;-78
2024/02/27 08:51:13;;;;;;;62.83;36.07;;;8.20;99.90;;;;;;780534;184;26434;-78
2024/02/27 08:53:39;;;;;;;52.03;34.23;;;8.30;99.90;;;;;;779545;182;27014;-78
2024/02/27 08:56:06;;;;;;;51.40;33.70;;;8.40;99.90;;;;;;795752;180;26439;-78
2024/02/27 08:58:33;;;;;;;56.80;34.97;;;8.50;99.90;;;;;;779769;183;26467;-78
2024/02/27 09:01:00;;;;;;;51.03;33.53;;;8.50;99.90;;;;;;779646;183;26441;-78
2024/02/27 09:03:26;;;;;;;54.60;34.50;;;8.50;99.90;;;;;;796788;179;26432;-76
2024/02/27 09:05:54;;;;;;;47.83;32.13;;;8.60;99.90;;;;;;778144;183;27072;-77
2024/02/27 09:08:21;;;;;;;49.07;31.77;;;8.70;99.90;;;;;;796576;179;26602;-78
2024/02/27 09:10:47;;;;;;;48.20;31.63;;;8.90;99.90;;;;;;778431;184;26439;-78
2024/02/27 09:13:14;;;;;;;48.00;30.00;;;9.10;99.90;;;;;;795618;179;26436;-77
2024/02/27 09:15:40;;;;;;;54.13;33.23;;;9.20;99.90;;;;;;777843;184;26459;-78
2024/02/27 09:18:07;;;;;;;50.67;32.27;;;9.20;99.90;;;;;;797011;179;26582;-78
2024/02/27 09:20:35;;;;;;;48.60;31.90;;;9.30;99.90;;;;;;777793;184;26443;-78
2024/02/27 09:23:00;;;;;;;47.87;30.07;;;9.10;99.90;;;;;;794976;178;26478;-79
2024/02/27 09:25:27;;;;;;;49.57;32.00;;;9.40;99.90;;;;;;778811;184;26997;-78
2024/02/27 09:27:53;;;;;;;48.37;31.43;;;9.60;99.90;;;;;;798988;179;26476;-79
2024/02/27 09:30:20;;;;;;;49.83;32.67;;;9.40;99.90;;;;;;778225;184;27043;-78
2024/02/27 09:32:47;;;;;;;44.17;31.20;;;9.60;99.90;;;;;;800376;178;26521;-78
2024/02/27 09:35:14;;;;;;;46.30;30.20;;;9.60;99.90;;;;;;762354;186;26701;-77
2024/02/27 09:37:41;;;;;;;44.07;31.00;;;9.50;99.90;;;;;;797503;179;26435;-77
2024/02/27 09:40:08;;;;;;;40.47;28.20;;;9.20;99.90;;;;;;779083;183;26977;-78
2024/02/27 09:42:34;;;;;;;45.07;28.50;;;9.20;99.90;;;;;;797198;179;26616;-78
2024/02/27 09:45:01;;;;;;;46.23;30.23;;;9.40;99.90;;;;;;798607;179;26433;-78
2024/02/27 09:47:27;;;;;;;44.97;30.80;;;9.70;99.90;;;;;;794344;179;26445;-78
2024/02/27 09:49:54;;;;;;;45.50;29.10;;;9.70;99.90;;;;;;799668;179;26456;-79
2024/02/27 09:52:21;;;;;;;40.57;28.27;;;9.90;99.90;;;;;;798378;175;27037;-79
2024/02/27 09:54:47;;;;;;;45.10;27.93;;;10.10;99.90;;;;;;796834;179;26480;-78
2024/02/27 09:57:14;;;;;;;37.97;26.90;;;10.60;99.90;;;;;;798839;179;28111;-78
2024/02/27 09:59:41;;;;;;;38.90;26.00;;;10.60;99.90;;;;;;779621;184;26439;-77
2024/02/27 10:02:09;;;;;;;35.97;24.37;;;10.90;99.90;;;;;;798680;179;26422;-78
2024/02/27 10:04:35;;;;;;;37.57;26.10;;;10.90;99.90;;;;;;780500;181;26438;-79
2024/02/27 10:07:02;;;;;;;37.57;24.60;;;10.90;99.90;;;;;;799766;179;26426;-77
2024/02/27 10:09:29;;;;;;;38.53;24.80;;;10.90;99.90;;;;;;781941;178;26454;-78
2024/02/27 10:11:55;;;;;;;34.03;23.80;;;10.90;99.90;;;;;;802737;179;26432;-78
2024/02/27 10:14:22;;;;;;;37.53;24.13;;;11.10;99.90;;;;;;802267;176;26419;-78
2024/02/27 10:16:49;;;;;;;34.07;24.37;;;11.50;99.90;;;;;;777747;183;26453;-78
2024/02/27 10:19:15;;;;;;;34.07;23.90;;;11.80;99.90;;;;;;797961;179;26464;-78
2024/02/27 10:21:42;;;;;;;33.33;23.90;;;11.70;99.90;;;;;;779213;183;26431;-78
2024/02/27 10:24:08;;;;;;;35.33;24.43;;;11.80;99.90;;;;;;798673;179;26424;-79
2024/02/27 10:26:35;;;;;;;32.87;22.47;;;12.00;99.90;;;;;;780449;183;26491;-79
2024/02/27 10:29:01;;;;;;;32.40;22.63;;;11.70;99.90;;;;;;799293;179;26437;-79
2024/02/27 10:31:28;;;;;;;32.33;22.00;;;11.40;99.90;;;;;;798222;179;26435;-79
2024/02/27 10:33:55;;;;;;;33.83;23.07;;;11.90;99.90;;;;;;777721;182;26443;-78
2024/02/27 10:36:21;;;;;;;32.13;22.93;;;12.00;99.90;;;;;;798350;179;26445;-77
2024/02/27 10:38:48;;;;;;;32.70;23.27;;;12.10;99.90;;;;;;777372;184;26996;-78
2024/02/27 10:41:14;;;;;;;33.90;24.07;;;12.00;99.90;;;;;;796350;179;26444;-78
2024/02/27 10:43:41;;;;;;;34.53;23.77;;;11.50;99.90;;;;;;779589;182;27148;-78
2024/02/27 10:46:07;;;;;;;33.50;23.20;;;11.50;99.90;;;;;;800224;178;26435;-77
2024/02/27 10:48:34;;;;;;;33.70;23.57;;;11.20;99.90;;;;;;798754;179;26458;-78
2024/02/27 10:51:01;;;;;;;32.57;23.77;;;11.10;99.90;;;;;;779493;183;26475;-80
2024/02/27 10:53:27;;;;;;;33.63;23.33;;;11.10;99.90;;;;;;795883;179;26429;-78
2024/02/27 10:55:54;;;;;;;37.97;24.13;;;11.30;99.90;;;;;;798862;179;26978;-78
2024/02/27 10:58:20;;;;;;;34.33;23.83;;;11.50;99.90;;;;;;799414;179;26451;-78
2024/02/27 11:00:47;;;;;;;30.37;22.17;;;11.70;99.90;;;;;;779390;182;27017;-78
2024/02/27 11:03:14;;;;;;;30.00;22.00;;;12.60;99.60;;;;;;797594;179;26433;-79
2024/02/27 11:05:40;;;;;;;28.87;21.20;;;14.10;95.70;;;;;;798725;179;26467;-79
2024/02/27 11:08:07;;;;;;;29.70;22.83;;;15.60;93.20;;;;;;779935;183;26576;-77
2024/02/27 11:10:33;;;;;;;32.97;22.77;;;15.10;93.60;;;;;;796644;179;26444;-78
2024/02/27 11:13:01;;;;;;;30.80;22.40;;;16.20;91.60;;;;;;797081;179;26447;-77
2024/02/27 11:15:27;;;;;;;30.83;21.93;;;16.60;87.90;;;;;;795770;179;26444;-79
2024/02/27 11:17:54;;;;;;;30.13;23.20;;;16.00;86.60;;;;;;799042;179;26436;-79
2024/02/27 11:20:21;;;;;;;36.53;23.47;;;15.00;87.30;;;;;;796765;179;26437;-79
2024/02/27 11:22:47;;;;;;;31.53;24.37;;;14.20;92.30;;;;;;782141;177;26438;-78
2024/02/27 11:25:14;;;;;;;34.40;24.00;;;13.60;96.00;;;;;;798601;173;26424;-79
2024/02/27 11:27:40;;;;;;;30.97;22.40;;;14.50;95.70;;;;;;797264;175;26461;-78
2024/02/27 11:30:07;;;;;;;35.07;25.80;;;15.20;92.10;;;;;;779328;183;27017;-78
2024/02/27 11:32:36;;;;;;;38.10;25.60;;;15.70;91.40;;;;;;798493;179;26472;-77
2024/02/27 11:35:01;;;;;;;34.33;23.60;;;15.40;84.30;;;;;;779114;183;26431;-77
2024/02/27 11:37:27;;;;;;;35.27;26.47;;;15.90;91.80;;;;;;793933;179;27062;-78
2024/02/27 11:39:54;;;;;;;30.30;21.50;;;16.40;84.60;;;;;;797939;179;26994;-77
2024/02/27 11:42:39;;;;;;;29.30;21.10;;;15.60;90.90;;;;;;778009;184;26439;-78
2024/02/27 11:45:10;;;;;;;30.27;21.97;;;14.80;92.60;;;;;;793412;179;26434;-77
2024/02/27 11:47:38;;;;;;;29.17;21.10;;;15.20;92.20;;;;;;777961;184;26585;-78
2024/02/27 11:50:06;;;;;;;27.90;20.07;;;15.30;92.40;;;;;;796341;179;28100;-78
2024/02/27 11:52:33;;;;;;;30.73;20.63;;;16.50;81.30;;;;;;796166;179;26435;-77
2024/02/27 11:54:59;;;;;;;31.03;22.03;;;16.40;90.10;;;;;;779510;182;26599;-78
2024/02/27 11:57:26;;;;;;;24.87;20.13;;;17.10;69.60;;;;;;797464;178;26440;-77
2024/02/27 11:59:52;;;;;;;32.07;22.43;;;16.20;83.50;;;;;;799235;179;27010;-77
2024/02/27 12:02:19;;;;;;;30.60;22.23;;;15.80;90.30;;;;;;779876;183;26488;-76
2024/02/27 12:04:45;;;;;;;28.03;20.60;;;17.30;84.60;;;;;;796789;175;26429;-77
2024/02/27 12:07:12;;;;;;;26.10;20.40;;;17.60;71.00;;;;;;785277;183;26463;-79
2024/02/27 12:09:39;;;;;;;27.83;21.63;;;18.60;64.60;;;;;;800921;178;26576;-78
2024/02/27 12:12:05;;;;;;;25.97;21.33;;;18.90;68.60;;;;;;781131;183;26458;-79
2024/02/27 12:14:32;;;;;;;34.00;26.07;;;19.30;64.20;;;;;;779091;183;26460;-77
2024/02/27 12:16:59;;;;;;;54.97;38.17;;;20.10;51.50;;;;;;796663;179;26643;-78
2024/02/27 12:19:26;;;;;;;42.80;31.40;;;18.20;64.80;;;;;;778742;182;26446;-77
2024/02/27 12:21:52;;;;;;;31.90;25.00;;;16.40;68.70;;;;;;800213;178;26464;-78
2024/02/27 12:24:19;;;;;;;34.90;26.03;;;14.70;91.30;;;;;;780238;183;27002;-78
2024/02/27 12:26:46;;;;;;;32.27;24.97;;;13.90;94.20;;;;;;796701;177;27069;-79
2024/02/27 12:29:13;;;;;;;31.90;24.57;;;13.30;94.10;;;;;;796596;178;26429;-77
2024/02/27 12:31:38;;;;;;;34.40;25.97;;;13.40;94.80;;;;;;778405;179;26459;-78
2024/02/27 12:34:05;;;;;;;35.37;26.23;;;12.90;98.50;;;;;;778985;184;26439;-76